sensor_id;sensor_type;location;lat;lon;timestamp;P1;durP1;ratioP1;P2;durP2;ratioP2
77775;SDS011;66965;43.328;6.668;2023-01-19T00:01:22;4.65;;;2.38;;
77775;SDS011;66965;43.328;6.668;2023-01-19T00:03:49;3.10;;;1.40;;
77775;SDS011;66965;43.328;6.668;2023-01-19T00:06:15;3.55;;;1.88;;
77775;SDS011;66965;43.328;6.668;2023-01-19T00:08:41;3.97;;;1.73;;
77775;SDS011;66965;43.328;6.668;2023-01-19T00:11:09;3.85;;;1.60;;
77775;SDS011;66965;43.328;6.668;2023-01-19T00:13:36;4.88;;;2.13;;
77775;SDS011;66965;43.328;6.668;2023-01-19T00:16:02;2.45;;;1.40;;
77775;SDS011;66965;43.328;6.668;2023-01-19T00:18:28;3.88;;;1.73;;
77775;SDS011;66965;43.328;6.668;2023-01-19T00:20:53;5.47;;;2.15;;
77775;SDS011;66965;43.328;6.668;2023-01-19T00:23:19;4.80;;;2.17;;
77775;SDS011;66965;43.328;6.668;2023-01-19T00:25:45;4.68;;;1.88;;
77775;SDS011;66965;43.328;6.668;2023-01-19T00:28:12;5.38;;;2.50;;
77775;SDS011;66965;43.328;6.668;2023-01-19T00:30:39;4.20;;;1.95;;
77775;SDS011;66965;43.328;6.668;2023-01-19T00:33:06;2.55;;;1.42;;
77775;SDS011;66965;43.328;6.668;2023-01-19T00:35:32;2.92;;;1.73;;
77775;SDS011;66965;43.328;6.668;2023-01-19T00:37:58;3.92;;;1.80;;
77775;SDS011;66965;43.328;6.668;2023-01-19T00:40:24;4.15;;;2.00;;
77775;SDS011;66965;43.328;6.668;2023-01-19T00:42:49;5.72;;;2.15;;
77775;SDS011;66965;43.328;6.668;2023-01-19T00:45:18;4.75;;;1.90;;
77775;SDS011;66965;43.328;6.668;2023-01-19T00:47:46;3.70;;;1.65;;
77775;SDS011;66965;43.328;6.668;2023-01-19T00:52:41;4.22;;;1.88;;
77775;SDS011;66965;43.328;6.668;2023-01-19T00:55:08;4.78;;;2.40;;
77775;SDS011;66965;43.328;6.668;2023-01-19T00:57:35;4.20;;;2.05;;
77775;SDS011;66965;43.328;6.668;2023-01-19T01:00:03;6.43;;;2.15;;
77775;SDS011;66965;43.328;6.668;2023-01-19T01:02:36;3.78;;;1.15;;
77775;SDS011;66965;43.328;6.668;2023-01-19T01:05:05;5.65;;;2.33;;
77775;SDS011;66965;43.328;6.668;2023-01-19T01:07:32;3.30;;;1.55;;
77775;SDS011;66965;43.328;6.668;2023-01-19T01:10:05;4.82;;;1.90;;
77775;SDS011;66965;43.328;6.668;2023-01-19T01:12:35;5.50;;;1.90;;
77775;SDS011;66965;43.328;6.668;2023-01-19T01:15:02;6.03;;;1.88;;
77775;SDS011;66965;43.328;6.668;2023-01-19T01:17:32;6.93;;;1.63;;
77775;SDS011;66965;43.328;6.668;2023-01-19T01:19:58;4.13;;;1.90;;
77775;SDS011;66965;43.328;6.668;2023-01-19T01:22:23;3.65;;;1.67;;
77775;SDS011;66965;43.328;6.668;2023-01-19T01:24:49;3.42;;;1.52;;
77775;SDS011;66965;43.328;6.668;2023-01-19T01:27:14;4.55;;;1.70;;
77775;SDS011;66965;43.328;6.668;2023-01-19T01:29:40;3.08;;;1.40;;
77775;SDS011;66965;43.328;6.668;2023-01-19T01:32:10;3.35;;;1.17;;
77775;SDS011;66965;43.328;6.668;2023-01-19T01:34:39;4.88;;;1.52;;
77775;SDS011;66965;43.328;6.668;2023-01-19T01:37:05;2.95;;;1.38;;
77775;SDS011;66965;43.328;6.668;2023-01-19T01:39:33;4.38;;;1.83;;
77775;SDS011;66965;43.328;6.668;2023-01-19T01:42:00;9.02;;;1.75;;
77775;SDS011;66965;43.328;6.668;2023-01-19T01:50:15;4.07;;;1.65;;
77775;SDS011;66965;43.328;6.668;2023-01-19T01:53:06;4.40;;;1.70;;
77775;SDS011;66965;43.328;6.668;2023-01-19T01:55:44;2.50;;;1.05;;
77775;SDS011;66965;43.328;6.668;2023-01-19T01:58:12;3.40;;;1.65;;
77775;SDS011;66965;43.328;6.668;2023-01-19T02:00:39;3.47;;;1.33;;
77775;SDS011;66965;43.328;6.668;2023-01-19T02:03:23;2.90;;;1.42;;
77775;SDS011;66965;43.328;6.668;2023-01-19T02:05:50;2.88;;;1.30;;
77775;SDS011;66965;43.328;6.668;2023-01-19T02:08:17;3.47;;;1.63;;
77775;SDS011;66965;43.328;6.668;2023-01-19T02:11:07;3.83;;;1.70;;
77775;SDS011;66965;43.328;6.668;2023-01-19T02:13:51;2.83;;;1.13;;
77775;SDS011;66965;43.328;6.668;2023-01-19T02:16:17;2.78;;;1.75;;
77775;SDS011;66965;43.328;6.668;2023-01-19T02:18:43;3.80;;;1.67;;
77775;SDS011;66965;43.328;6.668;2023-01-19T02:24:00;4.68;;;1.55;;
77775;SDS011;66965;43.328;6.668;2023-01-19T02:26:32;5.15;;;2.03;;
77775;SDS011;66965;43.328;6.668;2023-01-19T02:29:02;3.35;;;1.15;;
77775;SDS011;66965;43.328;6.668;2023-01-19T02:31:31;3.00;;;1.02;;
77775;SDS011;66965;43.328;6.668;2023-01-19T02:33:59;3.30;;;1.58;;
77775;SDS011;66965;43.328;6.668;2023-01-19T02:36:36;3.10;;;1.40;;
77775;SDS011;66965;43.328;6.668;2023-01-19T02:39:05;2.40;;;1.15;;
77775;SDS011;66965;43.328;6.668;2023-01-19T02:41:33;3.53;;;1.08;;
77775;SDS011;66965;43.328;6.668;2023-01-19T02:44:05;3.05;;;1.30;;
77775;SDS011;66965;43.328;6.668;2023-01-19T02:46:33;3.05;;;1.50;;
77775;SDS011;66965;43.328;6.668;2023-01-19T02:48:59;5.80;;;1.33;;
77775;SDS011;66965;43.328;6.668;2023-01-19T02:51:25;1.95;;;1.00;;
77775;SDS011;66965;43.328;6.668;2023-01-19T02:54:10;6.90;;;1.58;;
77775;SDS011;66965;43.328;6.668;2023-01-19T03:05:09;3.58;;;1.88;;
77775;SDS011;66965;43.328;6.668;2023-01-19T03:10:46;5.00;;;1.60;;
77775;SDS011;66965;43.328;6.668;2023-01-19T03:13:28;6.25;;;1.98;;
77775;SDS011;66965;43.328;6.668;2023-01-19T03:21:37;2.88;;;1.75;;
77775;SDS011;66965;43.328;6.668;2023-01-19T03:24:06;3.40;;;1.30;;
77775;SDS011;66965;43.328;6.668;2023-01-19T03:26:37;3.22;;;1.50;;
77775;SDS011;66965;43.328;6.668;2023-01-19T03:29:20;3.53;;;1.73;;
77775;SDS011;66965;43.328;6.668;2023-01-19T03:31:48;3.50;;;1.50;;
77775;SDS011;66965;43.328;6.668;2023-01-19T03:34:16;3.00;;;1.20;;
77775;SDS011;66965;43.328;6.668;2023-01-19T03:36:48;3.60;;;1.30;;
77775;SDS011;66965;43.328;6.668;2023-01-19T03:39:18;3.85;;;1.80;;
77775;SDS011;66965;43.328;6.668;2023-01-19T03:41:47;4.85;;;1.42;;
77775;SDS011;66965;43.328;6.668;2023-01-19T03:44:15;2.90;;;1.35;;
77775;SDS011;66965;43.328;6.668;2023-01-19T03:46:41;8.38;;;1.35;;
77775;SDS011;66965;43.328;6.668;2023-01-19T03:49:09;2.35;;;1.30;;
77775;SDS011;66965;43.328;6.668;2023-01-19T03:51:36;2.95;;;1.40;;
77775;SDS011;66965;43.328;6.668;2023-01-19T03:54:06;2.20;;;1.15;;
77775;SDS011;66965;43.328;6.668;2023-01-19T03:56:33;4.55;;;1.63;;
77775;SDS011;66965;43.328;6.668;2023-01-19T03:58:59;2.63;;;0.90;;
77775;SDS011;66965;43.328;6.668;2023-01-19T04:01:24;3.03;;;1.30;;
77775;SDS011;66965;43.328;6.668;2023-01-19T04:03:50;3.67;;;1.63;;
77775;SDS011;66965;43.328;6.668;2023-01-19T04:06:17;3.17;;;1.58;;
77775;SDS011;66965;43.328;6.668;2023-01-19T04:08:44;3.75;;;1.50;;
77775;SDS011;66965;43.328;6.668;2023-01-19T04:11:12;2.97;;;1.30;;
77775;SDS011;66965;43.328;6.668;2023-01-19T04:13:38;3.80;;;1.98;;
77775;SDS011;66965;43.328;6.668;2023-01-19T04:16:03;2.55;;;1.10;;
77775;SDS011;66965;43.328;6.668;2023-01-19T04:18:30;3.85;;;2.17;;
77775;SDS011;66965;43.328;6.668;2023-01-19T04:21:00;3.17;;;1.30;;
77775;SDS011;66965;43.328;6.668;2023-01-19T04:23:27;2.55;;;1.00;;
77775;SDS011;66965;43.328;6.668;2023-01-19T04:25:56;2.70;;;1.20;;
77775;SDS011;66965;43.328;6.668;2023-01-19T04:28:22;3.08;;;1.42;;
77775;SDS011;66965;43.328;6.668;2023-01-19T04:30:49;3.75;;;1.52;;
77775;SDS011;66965;43.328;6.668;2023-01-19T04:33:16;4.50;;;1.42;;
77775;SDS011;66965;43.328;6.668;2023-01-19T04:35:43;2.65;;;1.08;;
77775;SDS011;66965;43.328;6.668;2023-01-19T04:38:09;3.20;;;1.17;;
77775;SDS011;66965;43.328;6.668;2023-01-19T04:40:34;3.80;;;1.52;;
77775;SDS011;66965;43.328;6.668;2023-01-19T04:43:00;3.35;;;1.60;;
77775;SDS011;66965;43.328;6.668;2023-01-19T04:48:00;2.08;;;0.93;;
77775;SDS011;66965;43.328;6.668;2023-01-19T04:50:28;4.20;;;1.80;;
77775;SDS011;66965;43.328;6.668;2023-01-19T04:52:53;4.75;;;1.63;;
77775;SDS011;66965;43.328;6.668;2023-01-19T04:55:19;2.88;;;1.27;;
77775;SDS011;66965;43.328;6.668;2023-01-19T04:57:44;3.72;;;1.50;;
77775;SDS011;66965;43.328;6.668;2023-01-19T05:00:10;3.58;;;1.33;;
77775;SDS011;66965;43.328;6.668;2023-01-19T05:02:36;2.47;;;1.02;;
77775;SDS011;66965;43.328;6.668;2023-01-19T05:05:01;3.78;;;1.05;;
77775;SDS011;66965;43.328;6.668;2023-01-19T05:07:28;3.38;;;1.25;;
77775;SDS011;66965;43.328;6.668;2023-01-19T05:09:53;3.17;;;1.38;;
77775;SDS011;66965;43.328;6.668;2023-01-19T05:12:19;3.85;;;1.20;;
77775;SDS011;66965;43.328;6.668;2023-01-19T05:14:45;1.83;;;0.80;;
77775;SDS011;66965;43.328;6.668;2023-01-19T05:17:11;3.25;;;1.35;;
77775;SDS011;66965;43.328;6.668;2023-01-19T05:19:36;2.20;;;0.80;;
77775;SDS011;66965;43.328;6.668;2023-01-19T05:22:02;3.10;;;1.23;;
77775;SDS011;66965;43.328;6.668;2023-01-19T05:24:28;3.15;;;1.17;;
77775;SDS011;66965;43.328;6.668;2023-01-19T05:26:54;2.45;;;1.17;;
77775;SDS011;66965;43.328;6.668;2023-01-19T05:29:20;3.78;;;1.02;;
77775;SDS011;66965;43.328;6.668;2023-01-19T05:31:45;3.65;;;1.25;;
77775;SDS011;66965;43.328;6.668;2023-01-19T05:34:11;1.60;;;1.00;;
77775;SDS011;66965;43.328;6.668;2023-01-19T05:36:37;1.48;;;0.80;;
77775;SDS011;66965;43.328;6.668;2023-01-19T05:39:02;2.15;;;0.90;;
77775;SDS011;66965;43.328;6.668;2023-01-19T05:41:28;2.90;;;1.23;;
77775;SDS011;66965;43.328;6.668;2023-01-19T05:43:54;1.90;;;0.90;;
77775;SDS011;66965;43.328;6.668;2023-01-19T05:46:20;2.67;;;0.80;;
77775;SDS011;66965;43.328;6.668;2023-01-19T05:48:45;2.88;;;1.10;;
77775;SDS011;66965;43.328;6.668;2023-01-19T05:51:10;3.15;;;1.00;;
77775;SDS011;66965;43.328;6.668;2023-01-19T05:53:36;3.30;;;1.10;;
77775;SDS011;66965;43.328;6.668;2023-01-19T05:56:02;2.55;;;0.80;;
77775;SDS011;66965;43.328;6.668;2023-01-19T05:58:29;2.15;;;0.95;;
77775;SDS011;66965;43.328;6.668;2023-01-19T06:00:55;3.33;;;0.98;;
77775;SDS011;66965;43.328;6.668;2023-01-19T06:03:21;3.55;;;1.02;;
77775;SDS011;66965;43.328;6.668;2023-01-19T06:05:47;2.38;;;0.93;;
77775;SDS011;66965;43.328;6.668;2023-01-19T06:08:12;3.22;;;1.00;;
77775;SDS011;66965;43.328;6.668;2023-01-19T06:10:38;1.27;;;0.80;;
77775;SDS011;66965;43.328;6.668;2023-01-19T06:13:04;2.33;;;1.10;;
77775;SDS011;66965;43.328;6.668;2023-01-19T06:15:30;3.15;;;1.30;;
77775;SDS011;66965;43.328;6.668;2023-01-19T06:17:55;4.28;;;1.02;;
77775;SDS011;66965;43.328;6.668;2023-01-19T06:20:21;3.05;;;1.10;;
77775;SDS011;66965;43.328;6.668;2023-01-19T06:22:46;2.17;;;0.85;;
77775;SDS011;66965;43.328;6.668;2023-01-19T06:25:12;2.40;;;0.98;;
77775;SDS011;66965;43.328;6.668;2023-01-19T06:27:37;1.85;;;1.15;;
77775;SDS011;66965;43.328;6.668;2023-01-19T06:30:07;1.42;;;0.75;;
77775;SDS011;66965;43.328;6.668;2023-01-19T06:32:33;2.97;;;1.33;;
77775;SDS011;66965;43.328;6.668;2023-01-19T06:34:58;2.50;;;0.80;;
77775;SDS011;66965;43.328;6.668;2023-01-19T06:37:24;4.30;;;1.40;;
77775;SDS011;66965;43.328;6.668;2023-01-19T06:39:51;3.50;;;1.00;;
77775;SDS011;66965;43.328;6.668;2023-01-19T06:42:16;5.50;;;1.65;;
77775;SDS011;66965;43.328;6.668;2023-01-19T06:44:42;2.38;;;1.05;;
77775;SDS011;66965;43.328;6.668;2023-01-19T06:47:11;2.42;;;1.00;;
77775;SDS011;66965;43.328;6.668;2023-01-19T06:49:37;2.88;;;1.13;;
77775;SDS011;66965;43.328;6.668;2023-01-19T06:52:03;0.85;;;0.40;;
77775;SDS011;66965;43.328;6.668;2023-01-19T06:54:28;1.63;;;0.70;;
77775;SDS011;66965;43.328;6.668;2023-01-19T06:56:54;1.33;;;0.63;;
77775;SDS011;66965;43.328;6.668;2023-01-19T06:59:19;3.72;;;1.15;;
77775;SDS011;66965;43.328;6.668;2023-01-19T07:01:44;1.77;;;0.90;;
77775;SDS011;66965;43.328;6.668;2023-01-19T07:04:10;2.55;;;1.00;;
77775;SDS011;66965;43.328;6.668;2023-01-19T07:06:38;2.22;;;1.10;;
77775;SDS011;66965;43.328;6.668;2023-01-19T07:09:04;3.13;;;1.30;;
77775;SDS011;66965;43.328;6.668;2023-01-19T07:11:32;2.80;;;0.80;;
77775;SDS011;66965;43.328;6.668;2023-01-19T07:13:57;2.50;;;1.00;;
77775;SDS011;66965;43.328;6.668;2023-01-19T07:16:23;2.22;;;0.90;;
77775;SDS011;66965;43.328;6.668;2023-01-19T07:18:49;2.90;;;0.85;;
77775;SDS011;66965;43.328;6.668;2023-01-19T07:21:15;2.63;;;1.00;;
77775;SDS011;66965;43.328;6.668;2023-01-19T07:23:41;3.60;;;1.08;;
77775;SDS011;66965;43.328;6.668;2023-01-19T07:26:08;0.98;;;0.65;;
77775;SDS011;66965;43.328;6.668;2023-01-19T07:28:34;2.80;;;1.00;;
77775;SDS011;66965;43.328;6.668;2023-01-19T07:31:01;3.30;;;1.10;;
77775;SDS011;66965;43.328;6.668;2023-01-19T07:33:27;2.45;;;0.80;;
77775;SDS011;66965;43.328;6.668;2023-01-19T07:35:53;2.67;;;0.95;;
77775;SDS011;66965;43.328;6.668;2023-01-19T07:38:19;1.33;;;0.52;;
77775;SDS011;66965;43.328;6.668;2023-01-19T07:40:45;2.40;;;0.85;;
77775;SDS011;66965;43.328;6.668;2023-01-19T07:43:11;2.65;;;1.35;;
77775;SDS011;66965;43.328;6.668;2023-01-19T07:45:37;3.15;;;0.85;;
77775;SDS011;66965;43.328;6.668;2023-01-19T07:48:03;0.55;;;0.28;;
77775;SDS011;66965;43.328;6.668;2023-01-19T07:50:28;2.63;;;0.75;;
77775;SDS011;66965;43.328;6.668;2023-01-19T07:52:54;3.63;;;0.70;;
77775;SDS011;66965;43.328;6.668;2023-01-19T07:55:20;1.55;;;0.70;;
77775;SDS011;66965;43.328;6.668;2023-01-19T07:57:50;2.95;;;1.20;;
77775;SDS011;66965;43.328;6.668;2023-01-19T08:00:19;1.73;;;0.90;;
77775;SDS011;66965;43.328;6.668;2023-01-19T08:02:48;1.63;;;0.80;;
77775;SDS011;66965;43.328;6.668;2023-01-19T08:05:18;2.00;;;0.80;;
77775;SDS011;66965;43.328;6.668;2023-01-19T08:07:44;3.03;;;1.13;;
77775;SDS011;66965;43.328;6.668;2023-01-19T08:10:11;1.80;;;0.93;;
77775;SDS011;66965;43.328;6.668;2023-01-19T08:12:38;2.53;;;0.85;;
77775;SDS011;66965;43.328;6.668;2023-01-19T08:15:06;1.95;;;0.70;;
77775;SDS011;66965;43.328;6.668;2023-01-19T08:17:32;3.15;;;1.08;;
77775;SDS011;66965;43.328;6.668;2023-01-19T08:19:58;2.58;;;0.95;;
77775;SDS011;66965;43.328;6.668;2023-01-19T08:22:23;1.73;;;0.82;;
77775;SDS011;66965;43.328;6.668;2023-01-19T08:24:49;3.00;;;1.30;;
77775;SDS011;66965;43.328;6.668;2023-01-19T08:27:15;4.10;;;0.77;;
77775;SDS011;66965;43.328;6.668;2023-01-19T08:29:41;2.35;;;0.85;;
77775;SDS011;66965;43.328;6.668;2023-01-19T08:32:06;2.53;;;1.10;;
77775;SDS011;66965;43.328;6.668;2023-01-19T08:34:32;2.78;;;1.15;;
77775;SDS011;66965;43.328;6.668;2023-01-19T08:36:57;1.83;;;0.85;;
77775;SDS011;66965;43.328;6.668;2023-01-19T08:39:23;4.80;;;1.10;;
77775;SDS011;66965;43.328;6.668;2023-01-19T08:41:49;2.40;;;0.98;;
77775;SDS011;66965;43.328;6.668;2023-01-19T08:46:41;2.08;;;1.00;;
77775;SDS011;66965;43.328;6.668;2023-01-19T08:49:07;1.92;;;0.88;;
77775;SDS011;66965;43.328;6.668;2023-01-19T08:51:33;4.05;;;1.00;;
77775;SDS011;66965;43.328;6.668;2023-01-19T08:53:59;1.70;;;1.52;;
77775;SDS011;66965;43.328;6.668;2023-01-19T08:56:24;2.42;;;1.05;;
77775;SDS011;66965;43.328;6.668;2023-01-19T08:58:50;2.80;;;1.15;;
77775;SDS011;66965;43.328;6.668;2023-01-19T09:01:15;1.75;;;0.73;;
77775;SDS011;66965;43.328;6.668;2023-01-19T09:03:42;2.50;;;1.02;;
77775;SDS011;66965;43.328;6.668;2023-01-19T09:06:09;2.15;;;0.82;;
77775;SDS011;66965;43.328;6.668;2023-01-19T09:08:35;1.95;;;0.82;;
77775;SDS011;66965;43.328;6.668;2023-01-19T09:11:00;2.05;;;1.27;;
77775;SDS011;66965;43.328;6.668;2023-01-19T09:13:26;2.03;;;0.75;;
77775;SDS011;66965;43.328;6.668;2023-01-19T09:15:51;2.95;;;1.00;;
77775;SDS011;66965;43.328;6.668;2023-01-19T09:18:18;2.95;;;1.13;;
77775;SDS011;66965;43.328;6.668;2023-01-19T09:20:46;2.08;;;0.90;;
77775;SDS011;66965;43.328;6.668;2023-01-19T09:23:14;1.65;;;0.63;;
77775;SDS011;66965;43.328;6.668;2023-01-19T09:25:43;2.45;;;0.98;;
77775;SDS011;66965;43.328;6.668;2023-01-19T09:28:10;3.78;;;1.25;;
77775;SDS011;66965;43.328;6.668;2023-01-19T09:30:39;1.23;;;0.68;;
77775;SDS011;66965;43.328;6.668;2023-01-19T09:33:06;1.40;;;0.68;;
77775;SDS011;66965;43.328;6.668;2023-01-19T09:35:35;1.63;;;0.80;;
77775;SDS011;66965;43.328;6.668;2023-01-19T09:38:04;3.75;;;1.08;;
77775;SDS011;66965;43.328;6.668;2023-01-19T09:40:35;2.58;;;0.90;;
77775;SDS011;66965;43.328;6.668;2023-01-19T09:43:12;1.85;;;0.65;;
77775;SDS011;66965;43.328;6.668;2023-01-19T09:45:44;1.30;;;0.77;;
77775;SDS011;66965;43.328;6.668;2023-01-19T09:53:54;1.58;;;0.75;;
77775;SDS011;66965;43.328;6.668;2023-01-19T09:56:26;1.60;;;0.65;;
77775;SDS011;66965;43.328;6.668;2023-01-19T09:58:53;2.08;;;1.00;;
77775;SDS011;66965;43.328;6.668;2023-01-19T10:10:30;2.33;;;1.10;;
77775;SDS011;66965;43.328;6.668;2023-01-19T10:15:35;2.17;;;0.95;;
77775;SDS011;66965;43.328;6.668;2023-01-19T10:21:10;2.65;;;1.00;;
77775;SDS011;66965;43.328;6.668;2023-01-19T10:23:44;2.03;;;0.80;;
77775;SDS011;66965;43.328;6.668;2023-01-19T10:26:15;2.05;;;0.70;;
77775;SDS011;66965;43.328;6.668;2023-01-19T10:28:41;4.03;;;0.98;;
77775;SDS011;66965;43.328;6.668;2023-01-19T10:31:07;2.70;;;1.00;;
77775;SDS011;66965;43.328;6.668;2023-01-19T10:33:34;3.45;;;1.00;;
77775;SDS011;66965;43.328;6.668;2023-01-19T10:36:04;1.20;;;0.57;;
77775;SDS011;66965;43.328;6.668;2023-01-19T10:38:31;2.08;;;0.80;;
77775;SDS011;66965;43.328;6.668;2023-01-19T10:41:00;2.15;;;0.90;;
77775;SDS011;66965;43.328;6.668;2023-01-19T10:43:36;2.25;;;0.68;;
77775;SDS011;66965;43.328;6.668;2023-01-19T10:46:04;3.13;;;0.80;;
77775;SDS011;66965;43.328;6.668;2023-01-19T10:48:35;2.40;;;1.00;;
77775;SDS011;66965;43.328;6.668;2023-01-19T10:51:04;1.23;;;0.55;;
77775;SDS011;66965;43.328;6.668;2023-01-19T10:53:30;1.95;;;0.80;;
77775;SDS011;66965;43.328;6.668;2023-01-19T10:58:44;1.80;;;0.73;;
77775;SDS011;66965;43.328;6.668;2023-01-19T11:01:20;2.67;;;0.80;;
77775;SDS011;66965;43.328;6.668;2023-01-19T11:03:48;3.03;;;1.30;;
77775;SDS011;66965;43.328;6.668;2023-01-19T11:08:39;2.95;;;0.82;;
77775;SDS011;66965;43.328;6.668;2023-01-19T11:11:09;3.80;;;0.95;;
77775;SDS011;66965;43.328;6.668;2023-01-19T11:13:36;5.00;;;1.20;;
77775;SDS011;66965;43.328;6.668;2023-01-19T11:18:30;1.88;;;0.73;;
77775;SDS011;66965;43.328;6.668;2023-01-19T11:21:03;2.20;;;0.73;;
77775;SDS011;66965;43.328;6.668;2023-01-19T11:23:32;2.38;;;0.73;;
77775;SDS011;66965;43.328;6.668;2023-01-19T11:26:06;1.77;;;0.73;;
77775;SDS011;66965;43.328;6.668;2023-01-19T11:28:38;2.25;;;0.70;;
77775;SDS011;66965;43.328;6.668;2023-01-19T11:33:42;1.80;;;0.68;;
77775;SDS011;66965;43.328;6.668;2023-01-19T11:36:19;1.38;;;0.57;;
77775;SDS011;66965;43.328;6.668;2023-01-19T11:38:47;2.83;;;0.70;;
77775;SDS011;66965;43.328;6.668;2023-01-19T11:41:19;2.63;;;0.95;;
77775;SDS011;66965;43.328;6.668;2023-01-19T11:43:47;3.15;;;0.90;;
77775;SDS011;66965;43.328;6.668;2023-01-19T11:46:16;2.15;;;0.90;;
77775;SDS011;66965;43.328;6.668;2023-01-19T11:48:48;1.25;;;0.52;;
77775;SDS011;66965;43.328;6.668;2023-01-19T11:51:37;1.40;;;0.55;;
77775;SDS011;66965;43.328;6.668;2023-01-19T11:54:20;2.13;;;0.98;;
77775;SDS011;66965;43.328;6.668;2023-01-19T11:56:54;4.30;;;1.30;;
77775;SDS011;66965;43.328;6.668;2023-01-19T11:59:23;2.10;;;0.80;;
77775;SDS011;66965;43.328;6.668;2023-01-19T12:01:56;3.50;;;1.20;;
77775;SDS011;66965;43.328;6.668;2023-01-19T12:06:55;2.55;;;0.90;;
77775;SDS011;66965;43.328;6.668;2023-01-19T12:09:23;1.75;;;0.68;;
77775;SDS011;66965;43.328;6.668;2023-01-19T12:11:54;2.38;;;0.77;;
77775;SDS011;66965;43.328;6.668;2023-01-19T12:17:29;2.38;;;0.73;;
77775;SDS011;66965;43.328;6.668;2023-01-19T12:22:44;2.17;;;1.00;;
77775;SDS011;66965;43.328;6.668;2023-01-19T12:25:18;2.35;;;0.70;;
77775;SDS011;66965;43.328;6.668;2023-01-19T12:27:48;1.42;;;0.68;;
77775;SDS011;66965;43.328;6.668;2023-01-19T12:30:21;2.47;;;1.08;;
77775;SDS011;66965;43.328;6.668;2023-01-19T12:41:17;2.58;;;0.75;;
77775;SDS011;66965;43.328;6.668;2023-01-19T12:44:13;1.70;;;0.75;;
77775;SDS011;66965;43.328;6.668;2023-01-19T12:46:34;1.83;;;0.50;;
77775;SDS011;66965;43.328;6.668;2023-01-19T12:52:08;3.13;;;0.77;;
77775;SDS011;66965;43.328;6.668;2023-01-19T12:54:34;1.73;;;0.77;;
77775;SDS011;66965;43.328;6.668;2023-01-19T12:57:01;1.55;;;0.70;;
77775;SDS011;66965;43.328;6.668;2023-01-19T12:59:32;2.63;;;0.60;;
77775;SDS011;66965;43.328;6.668;2023-01-19T13:04:42;1.65;;;0.60;;
77775;SDS011;66965;43.328;6.668;2023-01-19T13:13:38;2.42;;;0.90;;
77775;SDS011;66965;43.328;6.668;2023-01-19T13:21:31;0.85;;;0.50;;
77775;SDS011;66965;43.328;6.668;2023-01-19T13:24:02;2.85;;;0.80;;
77775;SDS011;66965;43.328;6.668;2023-01-19T13:26:30;1.88;;;0.80;;
77775;SDS011;66965;43.328;6.668;2023-01-19T13:32:01;3.10;;;0.70;;
77775;SDS011;66965;43.328;6.668;2023-01-19T13:34:50;3.08;;;0.80;;
77775;SDS011;66965;43.328;6.668;2023-01-19T13:37:34;1.67;;;0.52;;
77775;SDS011;66965;43.328;6.668;2023-01-19T13:40:03;1.05;;;0.60;;
77775;SDS011;66965;43.328;6.668;2023-01-19T13:42:32;0.95;;;0.50;;
77775;SDS011;66965;43.328;6.668;2023-01-19T13:45:06;1.75;;;0.70;;
77775;SDS011;66965;43.328;6.668;2023-01-19T13:47:46;1.52;;;0.70;;
77775;SDS011;66965;43.328;6.668;2023-01-19T13:50:23;1.65;;;0.47;;
77775;SDS011;66965;43.328;6.668;2023-01-19T13:52:50;1.25;;;0.60;;
77775;SDS011;66965;43.328;6.668;2023-01-19T13:55:18;1.83;;;0.65;;
77775;SDS011;66965;43.328;6.668;2023-01-19T13:57:45;1.35;;;0.80;;
77775;SDS011;66965;43.328;6.668;2023-01-19T14:00:28;2.20;;;1.05;;
77775;SDS011;66965;43.328;6.668;2023-01-19T14:05:37;1.80;;;0.60;;
77775;SDS011;66965;43.328;6.668;2023-01-19T14:10:37;2.53;;;0.80;;
77775;SDS011;66965;43.328;6.668;2023-01-19T14:13:21;2.25;;;0.95;;
77775;SDS011;66965;43.328;6.668;2023-01-19T14:15:57;1.95;;;0.70;;
77775;SDS011;66965;43.328;6.668;2023-01-19T14:31:44;1.77;;;0.70;;
77775;SDS011;66965;43.328;6.668;2023-01-19T14:36:59;2.20;;;0.70;;
77775;SDS011;66965;43.328;6.668;2023-01-19T14:39:26;2.63;;;0.65;;
77775;SDS011;66965;43.328;6.668;2023-01-19T14:41:55;2.20;;;0.68;;
77775;SDS011;66965;43.328;6.668;2023-01-19T14:44:38;1.92;;;0.70;;
77775;SDS011;66965;43.328;6.668;2023-01-19T14:47:04;2.15;;;0.70;;
77775;SDS011;66965;43.328;6.668;2023-01-19T14:49:32;1.83;;;0.85;;
77775;SDS011;66965;43.328;6.668;2023-01-19T14:52:01;0.65;;;0.38;;
77775;SDS011;66965;43.328;6.668;2023-01-19T14:54:30;1.50;;;0.60;;
77775;SDS011;66965;43.328;6.668;2023-01-19T14:59:27;1.52;;;0.50;;
77775;SDS011;66965;43.328;6.668;2023-01-19T15:01:53;1.80;;;0.70;;
77775;SDS011;66965;43.328;6.668;2023-01-19T15:04:18;2.60;;;0.73;;
77775;SDS011;66965;43.328;6.668;2023-01-19T15:06:44;1.73;;;0.77;;
77775;SDS011;66965;43.328;6.668;2023-01-19T15:09:12;2.03;;;0.75;;
77775;SDS011;66965;43.328;6.668;2023-01-19T15:11:39;2.50;;;0.85;;
77775;SDS011;66965;43.328;6.668;2023-01-19T15:14:05;1.42;;;0.50;;
77775;SDS011;66965;43.328;6.668;2023-01-19T15:16:35;1.17;;;0.50;;
77775;SDS011;66965;43.328;6.668;2023-01-19T15:19:01;0.90;;;0.40;;
77775;SDS011;66965;43.328;6.668;2023-01-19T15:21:26;2.55;;;0.85;;
77775;SDS011;66965;43.328;6.668;2023-01-19T15:23:52;2.45;;;1.00;;
77775;SDS011;66965;43.328;6.668;2023-01-19T15:26:19;2.90;;;0.68;;
77775;SDS011;66965;43.328;6.668;2023-01-19T15:28:46;1.13;;;0.45;;
77775;SDS011;66965;43.328;6.668;2023-01-19T15:31:17;1.10;;;0.45;;
77775;SDS011;66965;43.328;6.668;2023-01-19T15:33:44;2.05;;;0.70;;
77775;SDS011;66965;43.328;6.668;2023-01-19T15:36:16;0.98;;;0.40;;
77775;SDS011;66965;43.328;6.668;2023-01-19T15:38:44;2.22;;;0.75;;
77775;SDS011;66965;43.328;6.668;2023-01-19T15:41:13;1.15;;;0.55;;
77775;SDS011;66965;43.328;6.668;2023-01-19T15:43:41;3.50;;;0.40;;
77775;SDS011;66965;43.328;6.668;2023-01-19T15:46:07;2.10;;;0.90;;
77775;SDS011;66965;43.328;6.668;2023-01-19T15:48:37;1.98;;;0.75;;
77775;SDS011;66965;43.328;6.668;2023-01-19T15:51:02;1.38;;;0.65;;
77775;SDS011;66965;43.328;6.668;2023-01-19T15:53:28;2.17;;;1.00;;
77775;SDS011;66965;43.328;6.668;2023-01-19T15:55:54;1.85;;;0.65;;
77775;SDS011;66965;43.328;6.668;2023-01-19T15:58:20;0.95;;;0.60;;
77775;SDS011;66965;43.328;6.668;2023-01-19T16:00:54;1.88;;;0.70;;
77775;SDS011;66965;43.328;6.668;2023-01-19T16:03:21;1.33;;;0.60;;
77775;SDS011;66965;43.328;6.668;2023-01-19T16:05:48;1.70;;;0.60;;
77775;SDS011;66965;43.328;6.668;2023-01-19T16:08:13;1.58;;;0.75;;
77775;SDS011;66965;43.328;6.668;2023-01-19T16:10:39;1.25;;;0.50;;
77775;SDS011;66965;43.328;6.668;2023-01-19T16:15:33;1.33;;;0.60;;
77775;SDS011;66965;43.328;6.668;2023-01-19T16:18:00;2.00;;;0.50;;
77775;SDS011;66965;43.328;6.668;2023-01-19T16:20:26;2.63;;;0.63;;
77775;SDS011;66965;43.328;6.668;2023-01-19T16:22:52;1.38;;;0.60;;
77775;SDS011;66965;43.328;6.668;2023-01-19T16:25:17;2.13;;;0.75;;
77775;SDS011;66965;43.328;6.668;2023-01-19T16:27:43;2.25;;;0.70;;
77775;SDS011;66965;43.328;6.668;2023-01-19T16:30:11;1.58;;;0.60;;
77775;SDS011;66965;43.328;6.668;2023-01-19T16:32:37;1.85;;;0.70;;
77775;SDS011;66965;43.328;6.668;2023-01-19T16:35:03;2.83;;;1.10;;
77775;SDS011;66965;43.328;6.668;2023-01-19T16:37:29;1.77;;;0.60;;
77775;SDS011;66965;43.328;6.668;2023-01-19T16:39:54;1.23;;;0.52;;
77775;SDS011;66965;43.328;6.668;2023-01-19T16:42:20;1.17;;;0.60;;
77775;SDS011;66965;43.328;6.668;2023-01-19T16:44:45;2.40;;;0.98;;
77775;SDS011;66965;43.328;6.668;2023-01-19T16:47:10;1.83;;;0.82;;
77775;SDS011;66965;43.328;6.668;2023-01-19T16:49:36;2.80;;;1.00;;
77775;SDS011;66965;43.328;6.668;2023-01-19T16:52:01;2.38;;;0.95;;
77775;SDS011;66965;43.328;6.668;2023-01-19T16:54:27;2.05;;;0.80;;
77775;SDS011;66965;43.328;6.668;2023-01-19T16:56:54;2.50;;;1.10;;
77775;SDS011;66965;43.328;6.668;2023-01-19T16:59:20;1.80;;;0.90;;
77775;SDS011;66965;43.328;6.668;2023-01-19T17:01:47;3.40;;;1.20;;